createdAt,value
2022-09-20T00:01:20.949Z,11.10
2022-09-20T00:03:50.875Z,11.07
2022-09-20T00:06:21.676Z,11.04
2022-09-20T00:08:49.688Z,11.06
2022-09-20T00:11:32.654Z,10.98
2022-09-20T00:14:02.264Z,10.97
2022-09-20T00:16:33.237Z,10.98
2022-09-20T00:19:03.857Z,10.95
2022-09-20T00:21:32.710Z,10.95
2022-09-20T00:24:01.690Z,10.93
2022-09-20T00:26:29.990Z,10.89
2022-09-20T00:28:59.187Z,10.84
2022-09-20T00:31:27.050Z,10.81
2022-09-20T00:34:16.851Z,10.74
2022-09-20T00:36:45.131Z,10.67
2022-09-20T00:39:15.238Z,10.60
2022-09-20T00:41:42.727Z,10.56
2022-09-20T00:44:47.782Z,10.55
2022-09-20T00:47:37.749Z,10.52
2022-09-20T00:50:14.386Z,10.54
2022-09-20T00:52:46.411Z,10.54
2022-09-20T00:55:15.382Z,10.61
2022-09-20T00:57:44.300Z,10.64
2022-09-20T01:00:13.093Z,10.70
2022-09-20T01:02:44.661Z,10.75
2022-09-20T01:05:14.749Z,10.84
2022-09-20T01:07:44.678Z,10.87
2022-09-20T01:10:12.218Z,10.95
2022-09-20T01:12:41.296Z,10.97
2022-09-20T01:15:10.530Z,11.01
2022-09-20T01:17:42.920Z,11.03
2022-09-20T01:20:13.508Z,11.03
2022-09-20T01:22:45.608Z,11.05
2022-09-20T01:25:20.124Z,11.07
2022-09-20T01:27:50.763Z,11.08
2022-09-20T01:30:22.345Z,11.08
2022-09-20T01:33:23.672Z,11.06
2022-09-20T01:35:52.626Z,11.06
2022-09-20T01:38:29.047Z,11.06
2022-09-20T01:41:02.581Z,11.07
2022-09-20T01:43:37.395Z,11.07
2022-09-20T01:46:32.205Z,11.03
2022-09-20T01:49:27.802Z,11.03
2022-09-20T01:52:25.514Z,10.97
2022-09-20T01:55:05.247Z,10.96
2022-09-20T01:57:54.887Z,10.95
2022-09-20T02:00:27.101Z,10.91
2022-09-20T02:03:20.710Z,10.87
2022-09-20T02:06:05.650Z,10.86
2022-09-20T02:08:45.015Z,10.85
2022-09-20T02:11:18.147Z,10.87
2022-09-20T02:14:04.317Z,10.90
2022-09-20T02:16:42.868Z,10.90
2022-09-20T02:19:47.813Z,10.92
2022-09-20T02:22:42.166Z,10.89
2022-09-20T02:25:30.166Z,10.86
2022-09-20T02:28:17.735Z,10.80
2022-09-20T02:31:12.772Z,10.75
2022-09-20T02:34:21.529Z,10.71
2022-09-20T02:37:08.383Z,10.72
2022-09-20T02:39:55.010Z,10.71
2022-09-20T02:42:30.756Z,10.72
2022-09-20T02:45:10.575Z,10.71
2022-09-20T02:47:43.889Z,10.70
2022-09-20T02:50:38.393Z,10.71
2022-09-20T02:53:32.962Z,10.69
2022-09-20T02:56:23.340Z,10.68
2022-09-20T02:58:50.691Z,10.63
2022-09-20T03:01:45.633Z,10.61
2022-09-20T03:04:34.109Z,10.54
2022-09-20T03:07:21.293Z,10.55
2022-09-20T03:10:07.566Z,10.50
2022-09-20T03:12:51.373Z,10.45
2022-09-20T03:15:41.607Z,10.41
2022-09-20T03:18:20.506Z,10.36
2022-09-20T03:21:02.409Z,10.33
2022-09-20T03:23:50.962Z,10.29
2022-09-20T03:26:49.054Z,10.26
2022-09-20T03:30:04.598Z,10.25
2022-09-20T03:32:43.985Z,10.23
2022-09-20T03:35:44.760Z,10.27
2022-09-20T03:38:28.411Z,10.24
2022-09-20T03:41:14.483Z,10.23
2022-09-20T03:44:11.902Z,10.18
2022-09-20T03:46:48.192Z,10.28
2022-09-20T03:49:48.043Z,10.30
2022-09-20T03:52:24.298Z,10.32
2022-09-20T03:55:10.095Z,10.33
2022-09-20T03:58:08.691Z,10.36
2022-09-20T04:01:00.798Z,10.39
2022-09-20T04:04:16.197Z,10.39
2022-09-20T04:07:10.001Z,10.41
2022-09-20T04:09:56.440Z,10.43
2022-09-20T04:12:48.817Z,10.43
2022-09-20T04:15:44.326Z,10.49
2022-09-20T04:18:29.948Z,10.50
2022-09-20T04:21:12.338Z,10.52
2022-09-20T04:24:03.727Z,10.53
2022-09-20T04:26:33.895Z,10.52
2022-09-20T04:29:08.644Z,10.54
2022-09-20T04:32:25.482Z,10.56
2022-09-20T04:35:21.761Z,10.57
2022-09-20T04:37:50.486Z,10.60
2022-09-20T04:40:45.509Z,10.61
2022-09-20T04:43:12.906Z,10.62
2022-09-20T04:46:02.374Z,10.62
2022-09-20T04:48:48.598Z,10.63
2022-09-20T04:51:35.206Z,10.59
2022-09-20T04:54:35.207Z,10.56
2022-09-20T04:57:21.039Z,10.54
2022-09-20T05:00:11.045Z,10.52
2022-09-20T05:03:21.650Z,10.48
2022-09-20T05:06:23.234Z,10.42
2022-09-20T05:09:06.201Z,10.41
2022-09-20T05:11:57.944Z,10.37
2022-09-20T05:14:46.734Z,10.34
2022-09-20T05:17:25.200Z,10.32
2022-09-20T05:20:50.846Z,10.30
2022-09-20T05:23:49.021Z,10.28
2022-09-20T05:26:45.800Z,10.25
2022-09-20T05:29:25.581Z,10.22
2022-09-20T05:32:19.083Z,10.23
2022-09-20T05:35:23.968Z,10.23
2022-09-20T05:38:17.583Z,10.19
2022-09-20T05:41:23.768Z,10.15
2022-09-20T05:43:53.964Z,10.10
2022-09-20T05:46:36.122Z,10.06
2022-09-20T05:49:13.026Z,9.97
2022-09-20T05:51:43.877Z,10.01
2022-09-20T05:54:36.317Z,9.99
2022-09-20T05:57:12.714Z,10.01
2022-09-20T06:00:08.266Z,10.00
2022-09-20T06:02:53.985Z,10.00
2022-09-20T06:05:42.948Z,10.03
2022-09-20T06:08:28.359Z,10.08
2022-09-20T06:11:21.714Z,10.08
2022-09-20T06:14:25.280Z,10.12
2022-09-20T06:17:07.245Z,10.15
2022-09-20T06:19:45.836Z,10.19
2022-09-20T06:22:28.734Z,10.18
2022-09-20T06:25:08.472Z,10.32
2022-09-20T06:27:39.091Z,10.40
2022-09-20T06:30:15.354Z,10.48
2022-09-20T06:33:25.672Z,10.58
2022-09-20T06:36:33.252Z,10.63
2022-09-20T06:39:39.570Z,10.63
2022-09-20T06:42:08.512Z,10.70
2022-09-20T06:44:38.074Z,10.81
2022-09-20T06:47:08.604Z,10.92
2022-09-20T06:49:36.469Z,11.04
2022-09-20T06:52:10.400Z,11.16
2022-09-20T06:54:38.071Z,11.22
2022-09-20T06:57:07.542Z,11.31
2022-09-20T06:59:35.024Z,11.33
2022-09-20T07:02:02.602Z,11.40
2022-09-20T07:04:30.129Z,11.49
2022-09-20T07:07:09.137Z,11.61
2022-09-20T07:09:37.045Z,11.72
2022-09-20T07:12:04.750Z,11.86
2022-09-20T07:14:32.246Z,11.95
2022-09-20T07:16:59.670Z,12.06
2022-09-20T07:19:27.134Z,12.16
2022-09-20T07:21:54.789Z,12.20
2022-09-20T07:24:22.277Z,12.23
2022-09-20T07:27:07.151Z,12.30
2022-09-20T07:29:35.321Z,12.42
2022-09-20T07:32:05.737Z,12.49
2022-09-20T07:34:33.357Z,12.55
2022-09-20T07:37:00.810Z,12.56
2022-09-20T07:39:28.273Z,12.66
2022-09-20T07:41:55.763Z,12.66
2022-09-20T07:44:24.860Z,12.62
2022-09-20T07:46:53.972Z,12.73
2022-09-20T07:49:22.098Z,12.78
2022-09-20T07:51:50.606Z,12.77
2022-09-20T07:54:18.770Z,12.80
2022-09-20T07:56:46.843Z,12.91
2022-09-20T07:59:14.775Z,12.96
2022-09-20T08:01:42.722Z,13.02
2022-09-20T08:04:11.075Z,12.87
2022-09-20T08:06:43.620Z,12.90
2022-09-20T08:09:12.360Z,13.15
2022-09-20T08:11:42.791Z,13.26
2022-09-20T08:14:14.932Z,13.36
2022-09-20T08:16:48.751Z,13.38
2022-09-20T08:19:23.370Z,13.61
2022-09-20T08:21:53.308Z,13.56
2022-09-20T08:24:21.118Z,13.38
2022-09-20T08:26:49.296Z,13.80
2022-09-20T08:29:16.814Z,13.76
2022-09-20T08:31:44.431Z,13.99
2022-09-20T08:34:15.026Z,13.93
2022-09-20T08:36:46.628Z,13.77
2022-09-20T08:42:22.822Z,13.79
2022-09-20T08:44:59.172Z,13.72
2022-09-20T08:47:35.816Z,13.71
2022-09-20T08:50:10.088Z,13.60
2022-09-20T08:52:40.553Z,13.57
2022-09-20T08:55:20.364Z,13.44
2022-09-20T08:57:54.962Z,13.47
2022-09-20T09:00:26.049Z,13.58
2022-09-20T09:02:58.061Z,13.92
2022-09-20T09:05:47.384Z,14.05
2022-09-20T09:08:18.335Z,14.23
2022-09-20T09:10:56.773Z,14.50
2022-09-20T09:13:33.513Z,14.68
2022-09-20T09:16:07.487Z,14.55
2022-09-20T09:18:38.556Z,14.93
2022-09-20T09:21:08.331Z,14.95
2022-09-20T09:23:45.658Z,15.18
2022-09-20T09:26:22.970Z,15.26
2022-09-20T09:29:12.567Z,15.33
2022-09-20T09:31:40.094Z,15.43
2022-09-20T09:34:28.192Z,15.18
2022-09-20T09:36:56.701Z,14.88
2022-09-20T09:39:32.597Z,14.79
2022-09-20T09:42:01.118Z,14.68
2022-09-20T09:44:33.936Z,14.42
2022-09-20T09:47:02.312Z,14.32
2022-09-20T09:49:34.084Z,14.45
2022-09-20T09:52:27.832Z,14.84
2022-09-20T09:55:02.415Z,14.92
2022-09-20T09:57:45.513Z,14.65
2022-09-20T10:00:22.015Z,14.68
2022-09-20T10:03:06.977Z,14.32
2022-09-20T10:06:14.968Z,14.76
2022-09-20T10:08:51.161Z,14.33
2022-09-20T10:11:46.853Z,14.96
2022-09-20T10:14:35.234Z,15.29
2022-09-20T10:17:29.599Z,15.74
2022-09-20T10:20:09.917Z,15.84
2022-09-20T10:23:30.023Z,16.12
2022-09-20T10:26:02.395Z,16.26
2022-09-20T10:28:32.603Z,16.60
2022-09-20T10:31:15.919Z,16.67
2022-09-20T10:34:10.490Z,16.73
2022-09-20T10:36:40.705Z,16.82
2022-09-20T10:39:35.029Z,16.87
2022-09-20T10:42:32.012Z,17.11
2022-09-20T10:45:34.900Z,17.12
2022-09-20T10:48:08.284Z,17.25
2022-09-20T10:50:56.211Z,17.38
2022-09-20T10:53:47.333Z,17.07
2022-09-20T10:56:27.157Z,17.14
2022-09-20T10:59:12.942Z,17.19
2022-09-20T11:01:51.387Z,16.82
2022-09-20T11:04:51.667Z,17.15
2022-09-20T11:07:21.289Z,17.05
2022-09-20T11:10:22.173Z,17.02
2022-09-20T11:12:56.429Z,16.98
2022-09-20T11:15:51.138Z,16.77
2022-09-20T11:18:29.369Z,16.59
2022-09-20T11:21:08.673Z,16.45
2022-09-20T11:24:03.821Z,16.94
2022-09-20T11:26:49.333Z,17.08
2022-09-20T11:29:35.341Z,17.08
2022-09-20T11:32:25.032Z,17.17
2022-09-20T11:34:57.197Z,17.16
2022-09-20T11:37:26.289Z,17.35
2022-09-20T11:40:01.532Z,17.31
2022-09-20T11:42:34.145Z,17.46
2022-09-20T11:45:01.674Z,17.57
2022-09-20T11:47:54.059Z,17.12
2022-09-20T11:51:09.214Z,16.85
2022-09-20T11:53:45.346Z,16.82
2022-09-20T11:56:23.372Z,16.90
2022-09-20T11:58:53.683Z,17.17
2022-09-20T12:01:43.264Z,17.28
2022-09-20T12:04:38.152Z,17.43
2022-09-20T12:07:17.960Z,17.37
2022-09-20T12:10:08.355Z,17.19
2022-09-20T12:12:42.753Z,16.98
2022-09-20T12:15:22.414Z,17.11
2022-09-20T12:17:49.990Z,17.12
2022-09-20T12:20:35.943Z,17.74
2022-09-20T12:23:40.249Z,18.01
2022-09-20T12:26:20.732Z,18.04
2022-09-20T12:28:59.908Z,18.04
2022-09-20T12:31:29.534Z,17.98
2022-09-20T12:34:09.949Z,17.76
2022-09-20T12:36:40.247Z,17.67
2022-09-20T12:39:22.570Z,17.46
2022-09-20T12:41:57.738Z,17.40
2022-09-20T12:44:37.909Z,17.31
2022-09-20T12:47:11.385Z,17.06
2022-09-20T12:50:05.350Z,17.23
2022-09-20T12:53:01.064Z,17.05
2022-09-20T12:55:29.866Z,16.94
2022-09-20T12:58:05.250Z,17.21
2022-09-20T13:00:40.532Z,16.81
2022-09-20T13:03:21.601Z,16.82
2022-09-20T13:06:11.813Z,16.76
2022-09-20T13:08:58.193Z,16.90
2022-09-20T13:11:47.116Z,16.68
2022-09-20T13:14:22.018Z,16.75
2022-09-20T13:17:01.133Z,16.73
2022-09-20T13:19:42.270Z,16.84
2022-09-20T13:22:14.876Z,16.86
2022-09-20T13:24:46.472Z,16.71
2022-09-20T13:27:21.985Z,16.82
2022-09-20T13:29:49.987Z,16.81
2022-09-20T13:32:34.451Z,16.81
2022-09-20T13:35:11.179Z,16.32
2022-09-20T13:37:43.403Z,16.39
2022-09-20T13:40:18.642Z,16.32
2022-09-20T13:42:48.436Z,16.23
2022-09-20T13:45:16.928Z,16.46
2022-09-20T13:47:48.715Z,16.46
2022-09-20T13:50:16.275Z,16.45
2022-09-20T13:52:49.174Z,16.22
2022-09-20T13:55:39.723Z,16.46
2022-09-20T13:58:27.588Z,16.39
2022-09-20T14:01:08.091Z,16.34
2022-09-20T14:03:37.296Z,16.53
2022-09-20T14:06:14.667Z,16.87
2022-09-20T14:08:45.256Z,17.03
2022-09-20T14:11:22.563Z,17.06
2022-09-20T14:13:54.186Z,17.22
2022-09-20T14:16:24.239Z,17.14
2022-09-20T14:18:52.219Z,17.31
2022-09-20T14:21:24.904Z,17.47
2022-09-20T14:24:24.775Z,16.96
2022-09-20T14:27:05.637Z,17.11
2022-09-20T14:29:35.853Z,17.33
2022-09-20T14:32:12.770Z,17.33
2022-09-20T14:34:41.732Z,16.86
2022-09-20T14:37:43.365Z,16.91
2022-09-20T14:40:33.855Z,16.81
2022-09-20T14:43:04.177Z,16.78
2022-09-20T14:45:31.645Z,16.58
2022-09-20T14:48:10.108Z,16.44
2022-09-20T14:50:44.206Z,16.10
2022-09-20T14:53:11.838Z,16.27
2022-09-20T14:55:42.327Z,16.21
2022-09-20T14:58:15.135Z,16.02
2022-09-20T15:00:55.017Z,16.03
2022-09-20T15:03:30.928Z,15.92
2022-09-20T15:05:58.647Z,15.82
2022-09-20T15:08:26.611Z,15.75
2022-09-20T15:10:54.480Z,15.81
2022-09-20T15:13:22.013Z,15.66
2022-09-20T15:15:52.192Z,15.69
2022-09-20T15:18:26.376Z,15.52
2022-09-20T15:20:55.468Z,15.39
2022-09-20T15:23:23.286Z,15.38
2022-09-20T15:25:52.907Z,15.36
2022-09-20T15:28:21.830Z,15.32
2022-09-20T15:30:51.937Z,15.28
2022-09-20T15:33:23.201Z,15.38
2022-09-20T15:35:50.826Z,15.50
2022-09-20T15:38:19.848Z,15.46
2022-09-20T15:40:49.542Z,15.40
2022-09-20T15:43:21.825Z,15.43
2022-09-20T15:45:53.287Z,15.43
2022-09-20T15:48:25.647Z,15.34
2022-09-20T15:51:01.846Z,15.32
2022-09-20T15:53:38.355Z,15.39
2022-09-20T15:56:15.236Z,15.25
2022-09-20T15:58:52.776Z,15.17
2022-09-20T16:01:20.537Z,15.35
2022-09-20T16:03:48.930Z,15.40
2022-09-20T16:06:16.435Z,15.60
2022-09-20T16:08:44.488Z,15.74
2022-09-20T16:11:21.775Z,15.67
2022-09-20T16:13:58.039Z,15.64
2022-09-20T16:16:27.196Z,15.40
2022-09-20T16:19:11.976Z,15.46
2022-09-20T16:21:41.281Z,15.30
2022-09-20T16:24:09.598Z,15.17
2022-09-20T16:26:37.867Z,15.02
2022-09-20T16:29:07.306Z,14.99
2022-09-20T16:31:42.957Z,15.14
2022-09-20T16:34:37.456Z,14.93
2022-09-20T16:37:08.849Z,14.77
2022-09-20T16:39:36.351Z,14.67
2022-09-20T16:42:07.433Z,14.68
2022-09-20T16:44:36.906Z,14.58
2022-09-20T16:47:07.980Z,14.48
2022-09-20T16:49:39.552Z,14.40
2022-09-20T16:52:08.867Z,14.45
2022-09-20T16:54:37.074Z,14.45
2022-09-20T16:57:05.089Z,14.37
2022-09-20T16:59:32.643Z,14.31
2022-09-20T17:02:00.152Z,14.17
2022-09-20T17:04:27.719Z,14.22
2022-09-20T17:06:55.596Z,14.15
2022-09-20T17:09:23.058Z,14.10
2022-09-20T17:11:51.933Z,14.01
2022-09-20T17:14:21.832Z,13.97
2022-09-20T17:16:50.333Z,13.85
2022-09-20T17:19:20.602Z,13.76
2022-09-20T17:21:50.890Z,13.73
2022-09-20T17:24:21.129Z,13.67
2022-09-20T17:26:50.310Z,13.54
2022-09-20T17:29:19.664Z,13.58
2022-09-20T17:31:54.559Z,13.57
2022-09-20T17:34:25.045Z,13.57
2022-09-20T17:36:54.050Z,13.47
2022-09-20T17:39:21.551Z,13.50
2022-09-20T17:41:50.606Z,13.53
2022-09-20T17:44:18.527Z,13.55
2022-09-20T17:46:49.457Z,13.55
2022-09-20T17:49:19.390Z,13.51
2022-09-20T17:51:49.418Z,13.52
2022-09-20T17:54:17.393Z,13.49
2022-09-20T17:56:47.083Z,13.54
2022-09-20T17:59:16.058Z,13.57
2022-09-20T18:01:44.718Z,13.50
2022-09-20T18:04:12.724Z,13.46
2022-09-20T18:06:51.475Z,13.48
2022-09-20T18:09:24.171Z,13.43
2022-09-20T18:11:53.696Z,13.44
2022-09-20T18:14:23.722Z,13.43
2022-09-20T18:16:58.040Z,13.40
2022-09-20T18:19:32.386Z,13.19
2022-09-20T18:22:00.483Z,13.39
2022-09-20T18:24:27.951Z,13.39
2022-09-20T18:26:55.700Z,13.39
2022-09-20T18:29:24.767Z,13.39
2022-09-20T18:31:55.562Z,13.39
2022-09-20T18:34:25.556Z,13.37
2022-09-20T18:36:55.386Z,13.35
2022-09-20T18:39:27.199Z,13.30
2022-09-20T18:41:54.673Z,13.23
2022-09-20T18:44:23.533Z,13.22
2022-09-20T18:46:53.368Z,13.20
2022-09-20T18:49:21.550Z,13.17
2022-09-20T18:51:49.894Z,13.11
2022-09-20T18:54:18.893Z,13.07
2022-09-20T18:56:49.176Z,13.03
2022-09-20T18:59:25.113Z,12.99
2022-09-20T19:01:53.250Z,12.96
2022-09-20T19:04:36.157Z,12.92
2022-09-20T19:07:13.984Z,12.85
2022-09-20T19:09:57.783Z,12.80
2022-09-20T19:12:49.488Z,12.69
2022-09-20T19:15:44.215Z,12.61
2022-09-20T19:18:30.976Z,12.52
2022-09-20T19:21:22.973Z,12.45
2022-09-20T19:24:09.006Z,12.43
2022-09-20T19:26:38.507Z,12.43
2022-09-20T19:29:19.148Z,12.38
2022-09-20T19:31:51.924Z,12.37
2022-09-20T19:34:25.085Z,12.37
2022-09-20T19:37:08.131Z,12.33
2022-09-20T19:40:08.742Z,12.33
2022-09-20T19:42:38.965Z,12.31
2022-09-20T19:45:25.358Z,12.26
2022-09-20T19:48:18.392Z,12.22
2022-09-20T19:50:49.044Z,12.18
2022-09-20T19:53:19.364Z,12.13
2022-09-20T19:55:56.185Z,12.08
2022-09-20T19:58:23.890Z,12.05
2022-09-20T20:00:51.803Z,12.04
2022-09-20T20:03:19.388Z,12.03
2022-09-20T20:06:07.816Z,12.00
2022-09-20T20:08:43.167Z,11.99
2022-09-20T20:11:29.745Z,12.00
2022-09-20T20:14:13.222Z,11.99
2022-09-20T20:16:47.798Z,12.01
2022-09-20T20:19:36.920Z,12.02
2022-09-20T20:22:16.220Z,12.04
2022-09-20T20:24:56.687Z,12.02
2022-09-20T20:27:25.866Z,11.97
2022-09-20T20:29:53.310Z,12.00
2022-09-20T20:32:20.769Z,11.99
2022-09-20T20:34:48.454Z,11.97
2022-09-20T20:37:16.061Z,11.95
2022-09-20T20:39:43.504Z,11.95
2022-09-20T20:42:12.791Z,11.94
2022-09-20T20:44:41.202Z,11.94
2022-09-20T20:47:08.679Z,11.94
2022-09-20T20:49:36.334Z,11.95
2022-09-20T20:52:06.035Z,11.96
2022-09-20T20:54:33.694Z,11.97
2022-09-20T20:57:03.266Z,11.89
2022-09-20T20:59:30.997Z,11.91
2022-09-20T21:01:58.519Z,11.89
2022-09-20T21:04:28.394Z,11.86
2022-09-20T21:06:55.850Z,11.87
2022-09-20T21:09:23.311Z,11.84
2022-09-20T21:11:50.694Z,11.83
2022-09-20T21:14:18.126Z,11.80
2022-09-20T21:16:45.807Z,11.80
2022-09-20T21:19:15.607Z,11.80
2022-09-20T21:21:45.012Z,11.79
2022-09-20T21:24:17.211Z,11.76
2022-09-20T21:26:44.994Z,11.73
2022-09-20T21:29:13.660Z,11.69
2022-09-20T21:31:44.871Z,11.63
2022-09-20T21:34:15.361Z,11.61
2022-09-20T21:36:44.538Z,11.60
2022-09-20T21:39:12.000Z,11.60
2022-09-20T21:41:40.156Z,11.60
2022-09-20T21:44:09.777Z,11.61
2022-09-20T21:46:41.946Z,11.62
2022-09-20T21:49:14.146Z,11.57
2022-09-20T21:51:43.900Z,11.56
2022-09-20T21:54:11.626Z,11.52
2022-09-20T21:56:40.766Z,11.54
2022-09-20T21:59:08.265Z,11.55
2022-09-20T22:01:38.666Z,11.57
2022-09-20T22:04:09.394Z,11.56
2022-09-20T22:06:39.530Z,11.54
2022-09-20T22:09:17.992Z,11.51
2022-09-20T22:11:47.829Z,11.53
2022-09-20T22:14:18.136Z,11.52
2022-09-20T22:16:46.839Z,11.48
2022-09-20T22:19:16.384Z,11.45
2022-09-20T22:21:46.395Z,11.42
2022-09-20T22:24:15.252Z,11.39
2022-09-20T22:26:48.404Z,11.35
2022-09-20T22:29:17.068Z,11.29
2022-09-20T22:31:46.293Z,11.19
2022-09-20T22:34:24.783Z,11.08
2022-09-20T22:36:52.494Z,11.02
2022-09-20T22:39:20.104Z,10.99
2022-09-20T22:41:49.068Z,10.91
2022-09-20T22:44:16.713Z,10.87
2022-09-20T22:46:44.352Z,10.82
2022-09-20T22:49:11.973Z,10.78
2022-09-20T22:51:39.769Z,10.76
2022-09-20T22:54:09.721Z,10.74
2022-09-20T22:56:38.544Z,10.69
2022-09-20T22:59:14.991Z,10.64
2022-09-20T23:01:47.498Z,10.61
2022-09-20T23:04:17.917Z,10.55
2022-09-20T23:06:55.090Z,10.48
2022-09-20T23:09:25.580Z,10.41
2022-09-20T23:11:53.539Z,10.37
2022-09-20T23:14:23.178Z,10.32
2022-09-20T23:16:50.996Z,10.25
2022-09-20T23:19:18.970Z,10.19
2022-09-20T23:21:46.595Z,10.12
2022-09-20T23:24:15.692Z,10.06
2022-09-20T23:26:44.449Z,10.00
2022-09-20T23:29:14.435Z,9.96
2022-09-20T23:31:46.088Z,9.90
2022-09-20T23:34:15.048Z,9.84
2022-09-20T23:36:43.536Z,9.80
2022-09-20T23:39:12.369Z,9.76
2022-09-20T23:41:41.226Z,9.74
2022-09-20T23:44:09.948Z,9.66
2022-09-20T23:46:37.788Z,9.63
2022-09-20T23:49:06.693Z,9.54
2022-09-20T23:51:35.399Z,9.49
2022-09-20T23:54:03.170Z,9.52
2022-09-20T23:56:31.213Z,9.47
2022-09-20T23:58:58.909Z,9.35
